LQTZ/TZL METAR and TAF weather

Enter ICAO airport designator
Station Type Date Time Source
LQTZ METAR 2019/06/27 04:00 UTC NOAA

LQTZ 270400Z VRB02KT 0300 R09/0150N FG BKN001 16/15 Q1022


Station Type Date Time Source
LQTZ Decoded METAR 2019/06/27 04:00 UTC NOAA

Tuzla, Bosnia and Herzegovina (LQTZ) 44-33N 018-42E
Jun 27, 2019 - 12:00 AM EDT / 2019.06.27 0400 UTC
Wind: Variable at 2 MPH (2 KT):0
Visibility: less than 1 mile:0
Sky conditions: mostly cloudy
Weather: fog
Temperature: 60 F (16 C)
Dew Point: 59 F (15 C)
Relative Humidity: 93%
Pressure (altimeter): 30.18 in. Hg (1022 hPa)
ob: LQTZ 270400Z VRB02KT 0300 R09/0150N FG BKN001 16/15 Q1022
cycle: 4

Station Type Date Time Source
LQTZ TAF 2019/06/26 22:10 UTC NOAA

TAF LQTZ 262203Z 2622/2718 CNL

Example: see airport list